sensor_id;sensor_type;location;lat;lon;timestamp;temperature;humidity
25877;DHT22;13692;47.480;19.216;2022-11-20T00:01:16;3.40;99.90
25877;DHT22;13692;47.480;19.216;2022-11-20T00:03:44;3.40;99.90
25877;DHT22;13692;47.480;19.216;2022-11-20T00:06:15;3.50;99.90
25877;DHT22;13692;47.480;19.216;2022-11-20T00:08:43;3.50;99.90
25877;DHT22;13692;47.480;19.216;2022-11-20T00:11:22;3.50;99.90
25877;DHT22;13692;47.480;19.216;2022-11-20T00:13:51;3.40;99.90
25877;DHT22;13692;47.480;19.216;2022-11-20T00:16:21;3.40;99.90
25877;DHT22;13692;47.480;19.216;2022-11-20T00:18:49;3.40;99.90
25877;DHT22;13692;47.480;19.216;2022-11-20T00:21:21;3.30;99.90
25877;DHT22;13692;47.480;19.216;2022-11-20T00:23:49;3.30;99.90
25877;DHT22;13692;47.480;19.216;2022-11-20T00:26:18;3.30;99.90
25877;DHT22;13692;47.480;19.216;2022-11-20T00:28:53;3.20;99.90
25877;DHT22;13692;47.480;19.216;2022-11-20T00:31:21;3.10;99.90
25877;DHT22;13692;47.480;19.216;2022-11-20T00:33:48;3.10;99.90
25877;DHT22;13692;47.480;19.216;2022-11-20T00:36:20;3.30;99.90
25877;DHT22;13692;47.480;19.216;2022-11-20T00:38:51;3.20;99.90
25877;DHT22;13692;47.480;19.216;2022-11-20T00:41:18;3.20;99.90
25877;DHT22;13692;47.480;19.216;2022-11-20T00:43:45;3.20;99.90
25877;DHT22;13692;47.480;19.216;2022-11-20T00:46:20;3.10;99.90
25877;DHT22;13692;47.480;19.216;2022-11-20T00:48:48;3.20;99.90
25877;DHT22;13692;47.480;19.216;2022-11-20T00:51:18;3.20;99.90
25877;DHT22;13692;47.480;19.216;2022-11-20T00:53:45;3.10;99.90
25877;DHT22;13692;47.480;19.216;2022-11-20T00:56:15;3.20;99.90
25877;DHT22;13692;47.480;19.216;2022-11-20T00:58:44;3.20;99.90
25877;DHT22;13692;47.480;19.216;2022-11-20T01:03:43;3.20;99.90
25877;DHT22;13692;47.480;19.216;2022-11-20T01:06:12;3.10;99.90
25877;DHT22;13692;47.480;19.216;2022-11-20T01:08:40;3.40;99.90
25877;DHT22;13692;47.480;19.216;2022-11-20T01:11:29;3.20;99.90
25877;DHT22;13692;47.480;19.216;2022-11-20T01:13:57;3.30;99.90
25877;DHT22;13692;47.480;19.216;2022-11-20T01:16:27;3.30;99.90
25877;DHT22;13692;47.480;19.216;2022-11-20T01:18:58;3.20;99.90
25877;DHT22;13692;47.480;19.216;2022-11-20T01:21:28;3.20;99.90
25877;DHT22;13692;47.480;19.216;2022-11-20T01:23:55;3.20;99.90
25877;DHT22;13692;47.480;19.216;2022-11-20T01:26:26;3.20;99.90
25877;DHT22;13692;47.480;19.216;2022-11-20T01:28:54;3.20;99.90
25877;DHT22;13692;47.480;19.216;2022-11-20T01:31:26;3.20;99.90
25877;DHT22;13692;47.480;19.216;2022-11-20T01:33:56;3.20;99.90
25877;DHT22;13692;47.480;19.216;2022-11-20T01:36:26;3.20;99.90
25877;DHT22;13692;47.480;19.216;2022-11-20T01:39:00;3.20;99.90
25877;DHT22;13692;47.480;19.216;2022-11-20T01:41:29;3.20;99.90
25877;DHT22;13692;47.480;19.216;2022-11-20T01:44:19;3.30;99.90
25877;DHT22;13692;47.480;19.216;2022-11-20T01:46:59;3.30;99.90
25877;DHT22;13692;47.480;19.216;2022-11-20T01:49:37;3.30;99.90
25877;DHT22;13692;47.480;19.216;2022-11-20T01:52:13;3.30;99.90
25877;DHT22;13692;47.480;19.216;2022-11-20T01:54:49;3.30;99.90
25877;DHT22;13692;47.480;19.216;2022-11-20T01:57:18;3.30;99.90
25877;DHT22;13692;47.480;19.216;2022-11-20T01:59:52;3.30;99.90
25877;DHT22;13692;47.480;19.216;2022-11-20T02:02:21;3.20;99.90
25877;DHT22;13692;47.480;19.216;2022-11-20T02:04:51;3.30;99.90
25877;DHT22;13692;47.480;19.216;2022-11-20T02:07:20;3.30;99.90
25877;DHT22;13692;47.480;19.216;2022-11-20T02:09:47;3.30;99.90
25877;DHT22;13692;47.480;19.216;2022-11-20T02:12:14;3.30;99.90
25877;DHT22;13692;47.480;19.216;2022-11-20T02:15:02;3.40;99.90
25877;DHT22;13692;47.480;19.216;2022-11-20T02:17:29;3.40;99.90
25877;DHT22;13692;47.480;19.216;2022-11-20T02:19:56;3.40;99.90
25877;DHT22;13692;47.480;19.216;2022-11-20T02:22:28;3.40;99.90
25877;DHT22;13692;47.480;19.216;2022-11-20T02:24:59;3.40;99.90
25877;DHT22;13692;47.480;19.216;2022-11-20T02:27:28;3.40;99.90
25877;DHT22;13692;47.480;19.216;2022-11-20T02:30:02;3.50;99.90
25877;DHT22;13692;47.480;19.216;2022-11-20T02:32:32;3.30;99.90
25877;DHT22;13692;47.480;19.216;2022-11-20T02:35:09;3.50;99.90
25877;DHT22;13692;47.480;19.216;2022-11-20T02:37:38;3.40;99.90
25877;DHT22;13692;47.480;19.216;2022-11-20T02:40:07;3.30;99.90
25877;DHT22;13692;47.480;19.216;2022-11-20T02:42:35;3.30;99.90
25877;DHT22;13692;47.480;19.216;2022-11-20T02:45:03;3.30;99.90
25877;DHT22;13692;47.480;19.216;2022-11-20T02:47:31;3.30;99.90
25877;DHT22;13692;47.480;19.216;2022-11-20T02:49:58;3.30;99.90
25877;DHT22;13692;47.480;19.216;2022-11-20T02:52:25;3.30;99.90
25877;DHT22;13692;47.480;19.216;2022-11-20T02:54:52;3.20;99.90
25877;DHT22;13692;47.480;19.216;2022-11-20T02:57:19;3.20;99.90
25877;DHT22;13692;47.480;19.216;2022-11-20T02:59:46;3.10;99.90
25877;DHT22;13692;47.480;19.216;2022-11-20T03:02:13;3.20;99.90
25877;DHT22;13692;47.480;19.216;2022-11-20T03:04:40;3.20;99.90
25877;DHT22;13692;47.480;19.216;2022-11-20T03:07:08;3.30;99.90
25877;DHT22;13692;47.480;19.216;2022-11-20T03:09:35;3.30;99.90
25877;DHT22;13692;47.480;19.216;2022-11-20T03:12:02;3.50;99.90
25877;DHT22;13692;47.480;19.216;2022-11-20T03:14:29;3.30;99.90
25877;DHT22;13692;47.480;19.216;2022-11-20T03:16:56;3.30;99.90
25877;DHT22;13692;47.480;19.216;2022-11-20T03:19:23;3.40;99.90
25877;DHT22;13692;47.480;19.216;2022-11-20T03:21:50;3.30;99.90
25877;DHT22;13692;47.480;19.216;2022-11-20T03:24:17;3.30;99.90
25877;DHT22;13692;47.480;19.216;2022-11-20T03:26:44;3.40;99.90
25877;DHT22;13692;47.480;19.216;2022-11-20T03:29:11;3.40;99.90
25877;DHT22;13692;47.480;19.216;2022-11-20T03:31:39;3.50;99.90
25877;DHT22;13692;47.480;19.216;2022-11-20T03:34:11;3.50;99.90
25877;DHT22;13692;47.480;19.216;2022-11-20T03:36:39;3.50;99.90
25877;DHT22;13692;47.480;19.216;2022-11-20T03:39:07;3.50;99.90
25877;DHT22;13692;47.480;19.216;2022-11-20T03:41:41;3.60;99.90
25877;DHT22;13692;47.480;19.216;2022-11-20T03:44:10;3.60;99.90
25877;DHT22;13692;47.480;19.216;2022-11-20T03:46:38;3.60;99.90
25877;DHT22;13692;47.480;19.216;2022-11-20T03:49:05;3.60;99.90
25877;DHT22;13692;47.480;19.216;2022-11-20T03:51:34;3.60;99.90
25877;DHT22;13692;47.480;19.216;2022-11-20T03:54:04;3.60;99.90
25877;DHT22;13692;47.480;19.216;2022-11-20T03:56:37;3.60;99.90
25877;DHT22;13692;47.480;19.216;2022-11-20T03:59:04;3.60;99.90
25877;DHT22;13692;47.480;19.216;2022-11-20T04:01:33;3.70;99.90
25877;DHT22;13692;47.480;19.216;2022-11-20T04:04:00;3.60;99.90
25877;DHT22;13692;47.480;19.216;2022-11-20T04:06:30;3.60;99.90
25877;DHT22;13692;47.480;19.216;2022-11-20T04:08:59;3.60;99.90
25877;DHT22;13692;47.480;19.216;2022-11-20T04:11:27;3.60;99.90
25877;DHT22;13692;47.480;19.216;2022-11-20T04:13:56;3.60;99.90
25877;DHT22;13692;47.480;19.216;2022-11-20T04:16:25;3.60;99.90
25877;DHT22;13692;47.480;19.216;2022-11-20T04:18:53;3.60;99.90
25877;DHT22;13692;47.480;19.216;2022-11-20T04:21:21;3.60;99.90
25877;DHT22;13692;47.480;19.216;2022-11-20T04:23:48;3.60;99.90
25877;DHT22;13692;47.480;19.216;2022-11-20T04:26:15;3.50;99.90
25877;DHT22;13692;47.480;19.216;2022-11-20T04:28:42;3.70;99.90
25877;DHT22;13692;47.480;19.216;2022-11-20T04:31:15;3.50;99.90
25877;DHT22;13692;47.480;19.216;2022-11-20T04:33:42;3.40;99.90
25877;DHT22;13692;47.480;19.216;2022-11-20T04:36:16;3.50;99.90
25877;DHT22;13692;47.480;19.216;2022-11-20T04:38:43;3.50;99.90
25877;DHT22;13692;47.480;19.216;2022-11-20T04:41:18;3.50;99.90
25877;DHT22;13692;47.480;19.216;2022-11-20T04:43:57;3.50;99.90
25877;DHT22;13692;47.480;19.216;2022-11-20T04:46:27;3.50;99.90
25877;DHT22;13692;47.480;19.216;2022-11-20T04:48:54;3.50;99.90
25877;DHT22;13692;47.480;19.216;2022-11-20T04:51:22;3.50;99.90
25877;DHT22;13692;47.480;19.216;2022-11-20T04:53:49;3.50;99.90
25877;DHT22;13692;47.480;19.216;2022-11-20T04:56:16;3.50;99.90
25877;DHT22;13692;47.480;19.216;2022-11-20T04:58:43;3.50;99.90
25877;DHT22;13692;47.480;19.216;2022-11-20T05:01:13;3.40;99.90
25877;DHT22;13692;47.480;19.216;2022-11-20T05:03:41;3.40;99.90
25877;DHT22;13692;47.480;19.216;2022-11-20T05:06:13;3.50;99.90
25877;DHT22;13692;47.480;19.216;2022-11-20T05:08:40;3.50;99.90
25877;DHT22;13692;47.480;19.216;2022-11-20T05:11:11;3.60;99.90
25877;DHT22;13692;47.480;19.216;2022-11-20T05:13:38;3.50;99.90
25877;DHT22;13692;47.480;19.216;2022-11-20T05:16:09;3.50;99.90
25877;DHT22;13692;47.480;19.216;2022-11-20T05:18:37;3.50;99.90
25877;DHT22;13692;47.480;19.216;2022-11-20T05:21:05;3.50;99.90
25877;DHT22;13692;47.480;19.216;2022-11-20T05:23:33;3.50;99.90
25877;DHT22;13692;47.480;19.216;2022-11-20T05:26:01;3.60;99.90
25877;DHT22;13692;47.480;19.216;2022-11-20T05:28:29;3.60;99.90
25877;DHT22;13692;47.480;19.216;2022-11-20T05:31:03;3.60;99.90
25877;DHT22;13692;47.480;19.216;2022-11-20T05:33:30;3.60;99.90
25877;DHT22;13692;47.480;19.216;2022-11-20T05:36:01;3.60;99.90
25877;DHT22;13692;47.480;19.216;2022-11-20T05:38:28;3.50;99.90
25877;DHT22;13692;47.480;19.216;2022-11-20T05:40:54;3.60;99.90
25877;DHT22;13692;47.480;19.216;2022-11-20T05:43:21;3.50;99.90
25877;DHT22;13692;47.480;19.216;2022-11-20T05:45:55;3.40;99.90
25877;DHT22;13692;47.480;19.216;2022-11-20T05:48:21;3.40;99.90
25877;DHT22;13692;47.480;19.216;2022-11-20T05:50:48;3.50;99.90
25877;DHT22;13692;47.480;19.216;2022-11-20T05:53:15;3.40;99.90
25877;DHT22;13692;47.480;19.216;2022-11-20T05:55:42;3.50;99.90
25877;DHT22;13692;47.480;19.216;2022-11-20T05:58:09;3.40;99.90
25877;DHT22;13692;47.480;19.216;2022-11-20T06:00:36;3.60;99.90
25877;DHT22;13692;47.480;19.216;2022-11-20T06:03:03;3.50;99.90
25877;DHT22;13692;47.480;19.216;2022-11-20T06:05:30;3.60;99.90
25877;DHT22;13692;47.480;19.216;2022-11-20T06:07:57;3.80;99.90
25877;DHT22;13692;47.480;19.216;2022-11-20T06:10:24;3.60;99.90
25877;DHT22;13692;47.480;19.216;2022-11-20T06:12:51;3.60;99.90
25877;DHT22;13692;47.480;19.216;2022-11-20T06:15:18;3.60;99.90
25877;DHT22;13692;47.480;19.216;2022-11-20T06:17:45;3.60;99.90
25877;DHT22;13692;47.480;19.216;2022-11-20T06:20:11;3.60;99.90
25877;DHT22;13692;47.480;19.216;2022-11-20T06:22:38;3.50;99.90
25877;DHT22;13692;47.480;19.216;2022-11-20T06:25:05;3.50;99.90
25877;DHT22;13692;47.480;19.216;2022-11-20T06:27:32;3.60;99.90
25877;DHT22;13692;47.480;19.216;2022-11-20T06:29:59;3.60;99.90
25877;DHT22;13692;47.480;19.216;2022-11-20T06:32:26;3.60;99.90
25877;DHT22;13692;47.480;19.216;2022-11-20T06:34:53;3.60;99.90
25877;DHT22;13692;47.480;19.216;2022-11-20T06:37:20;3.60;99.90
25877;DHT22;13692;47.480;19.216;2022-11-20T06:39:47;3.60;99.90
25877;DHT22;13692;47.480;19.216;2022-11-20T06:42:13;3.60;99.90
25877;DHT22;13692;47.480;19.216;2022-11-20T06:44:40;3.60;99.90
25877;DHT22;13692;47.480;19.216;2022-11-20T06:47:07;3.70;99.90
25877;DHT22;13692;47.480;19.216;2022-11-20T06:49:34;3.70;99.90
25877;DHT22;13692;47.480;19.216;2022-11-20T06:52:01;3.70;99.90
25877;DHT22;13692;47.480;19.216;2022-11-20T06:54:27;3.80;99.90
25877;DHT22;13692;47.480;19.216;2022-11-20T06:56:54;3.80;99.90
25877;DHT22;13692;47.480;19.216;2022-11-20T06:59:21;3.80;99.90
25877;DHT22;13692;47.480;19.216;2022-11-20T07:01:48;3.80;99.90
25877;DHT22;13692;47.480;19.216;2022-11-20T07:04:15;3.90;99.90
25877;DHT22;13692;47.480;19.216;2022-11-20T07:06:42;3.90;99.90
25877;DHT22;13692;47.480;19.216;2022-11-20T07:09:09;4.00;99.90
25877;DHT22;13692;47.480;19.216;2022-11-20T07:11:38;4.00;99.90
25877;DHT22;13692;47.480;19.216;2022-11-20T07:14:05;4.20;99.90
25877;DHT22;13692;47.480;19.216;2022-11-20T07:16:32;4.00;99.90
25877;DHT22;13692;47.480;19.216;2022-11-20T07:18:59;4.00;99.90
25877;DHT22;13692;47.480;19.216;2022-11-20T07:21:26;4.00;99.90
25877;DHT22;13692;47.480;19.216;2022-11-20T07:23:52;4.10;99.90
25877;DHT22;13692;47.480;19.216;2022-11-20T07:26:19;4.10;99.90
25877;DHT22;13692;47.480;19.216;2022-11-20T07:28:46;4.20;99.90
25877;DHT22;13692;47.480;19.216;2022-11-20T07:31:13;4.20;99.90
25877;DHT22;13692;47.480;19.216;2022-11-20T07:33:45;4.20;99.90
25877;DHT22;13692;47.480;19.216;2022-11-20T07:36:12;4.30;99.90
25877;DHT22;13692;47.480;19.216;2022-11-20T07:38:38;4.30;99.90
25877;DHT22;13692;47.480;19.216;2022-11-20T07:41:05;4.30;99.90
25877;DHT22;13692;47.480;19.216;2022-11-20T07:43:32;4.30;99.90
25877;DHT22;13692;47.480;19.216;2022-11-20T07:46:06;4.40;99.90
25877;DHT22;13692;47.480;19.216;2022-11-20T07:48:33;4.40;99.90
25877;DHT22;13692;47.480;19.216;2022-11-20T07:51:00;4.40;99.90
25877;DHT22;13692;47.480;19.216;2022-11-20T07:53:26;4.40;99.90
25877;DHT22;13692;47.480;19.216;2022-11-20T07:55:53;4.40;99.90
25877;DHT22;13692;47.480;19.216;2022-11-20T07:58:21;4.40;99.90
25877;DHT22;13692;47.480;19.216;2022-11-20T08:00:48;4.30;99.90
25877;DHT22;13692;47.480;19.216;2022-11-20T08:03:15;4.30;99.90
25877;DHT22;13692;47.480;19.216;2022-11-20T08:05:50;4.30;99.90
25877;DHT22;13692;47.480;19.216;2022-11-20T08:08:16;4.30;99.90
25877;DHT22;13692;47.480;19.216;2022-11-20T08:10:43;4.30;99.90
25877;DHT22;13692;47.480;19.216;2022-11-20T08:13:10;4.40;99.90
25877;DHT22;13692;47.480;19.216;2022-11-20T08:15:55;4.40;99.90
25877;DHT22;13692;47.480;19.216;2022-11-20T08:18:22;4.40;99.90
25877;DHT22;13692;47.480;19.216;2022-11-20T08:21:00;4.40;99.90
25877;DHT22;13692;47.480;19.216;2022-11-20T08:23:27;4.50;99.90
25877;DHT22;13692;47.480;19.216;2022-11-20T08:25:54;4.50;99.90
25877;DHT22;13692;47.480;19.216;2022-11-20T08:28:21;4.60;99.90
25877;DHT22;13692;47.480;19.216;2022-11-20T08:30:49;4.60;99.90
25877;DHT22;13692;47.480;19.216;2022-11-20T08:33:17;4.70;99.90
25877;DHT22;13692;47.480;19.216;2022-11-20T08:35:45;4.60;99.90
25877;DHT22;13692;47.480;19.216;2022-11-20T08:38:12;4.50;99.90
25877;DHT22;13692;47.480;19.216;2022-11-20T08:40:38;4.50;99.90
25877;DHT22;13692;47.480;19.216;2022-11-20T08:43:05;4.60;99.90
25877;DHT22;13692;47.480;19.216;2022-11-20T08:45:32;4.70;99.90
25877;DHT22;13692;47.480;19.216;2022-11-20T08:48:01;4.80;99.90
25877;DHT22;13692;47.480;19.216;2022-11-20T08:50:29;4.80;99.90
25877;DHT22;13692;47.480;19.216;2022-11-20T08:53:05;4.90;99.90
25877;DHT22;13692;47.480;19.216;2022-11-20T08:55:33;5.00;99.90
25877;DHT22;13692;47.480;19.216;2022-11-20T08:58:06;5.00;99.90
25877;DHT22;13692;47.480;19.216;2022-11-20T09:00:34;5.10;99.90
25877;DHT22;13692;47.480;19.216;2022-11-20T09:03:01;5.10;99.90
25877;DHT22;13692;47.480;19.216;2022-11-20T09:05:28;5.20;99.90
25877;DHT22;13692;47.480;19.216;2022-11-20T09:07:56;5.30;99.90
25877;DHT22;13692;47.480;19.216;2022-11-20T09:10:23;5.40;99.90
25877;DHT22;13692;47.480;19.216;2022-11-20T09:12:52;5.60;99.90
25877;DHT22;13692;47.480;19.216;2022-11-20T09:15:19;5.60;99.90
25877;DHT22;13692;47.480;19.216;2022-11-20T09:17:57;5.70;99.90
25877;DHT22;13692;47.480;19.216;2022-11-20T09:20:25;5.70;99.90
25877;DHT22;13692;47.480;19.216;2022-11-20T09:22:53;5.70;99.90
25877;DHT22;13692;47.480;19.216;2022-11-20T09:25:20;5.70;99.90
25877;DHT22;13692;47.480;19.216;2022-11-20T09:27:46;5.80;99.90
25877;DHT22;13692;47.480;19.216;2022-11-20T09:30:14;5.90;99.90
25877;DHT22;13692;47.480;19.216;2022-11-20T09:32:42;6.00;99.90
25877;DHT22;13692;47.480;19.216;2022-11-20T09:35:09;6.00;99.90
25877;DHT22;13692;47.480;19.216;2022-11-20T09:37:37;6.00;99.90
25877;DHT22;13692;47.480;19.216;2022-11-20T09:40:05;6.00;99.90
25877;DHT22;13692;47.480;19.216;2022-11-20T09:53:34;6.00;99.90
25877;DHT22;13692;47.480;19.216;2022-11-20T09:56:04;6.10;99.90
25877;DHT22;13692;47.480;19.216;2022-11-20T10:01:23;6.10;99.90
25877;DHT22;13692;47.480;19.216;2022-11-20T10:06:34;6.20;99.90
25877;DHT22;13692;47.480;19.216;2022-11-20T10:14:24;6.50;99.90
25877;DHT22;13692;47.480;19.216;2022-11-20T10:17:02;6.50;99.90
25877;DHT22;13692;47.480;19.216;2022-11-20T10:25:20;6.70;99.90
25877;DHT22;13692;47.480;19.216;2022-11-20T10:28:18;6.80;99.90
25877;DHT22;13692;47.480;19.216;2022-11-20T10:31:08;6.80;99.90
25877;DHT22;13692;47.480;19.216;2022-11-20T10:33:39;6.90;99.90
25877;DHT22;13692;47.480;19.216;2022-11-20T10:36:33;7.00;99.90
25877;DHT22;13692;47.480;19.216;2022-11-20T10:39:11;7.10;99.90
25877;DHT22;13692;47.480;19.216;2022-11-20T10:41:42;7.30;99.90
25877;DHT22;13692;47.480;19.216;2022-11-20T10:44:24;7.30;99.90
25877;DHT22;13692;47.480;19.216;2022-11-20T10:47:18;7.30;99.90
25877;DHT22;13692;47.480;19.216;2022-11-20T10:49:48;7.30;99.90
25877;DHT22;13692;47.480;19.216;2022-11-20T10:55:06;7.40;99.90
25877;DHT22;13692;47.480;19.216;2022-11-20T11:00:25;7.60;99.90
25877;DHT22;13692;47.480;19.216;2022-11-20T11:02:53;7.60;99.90
25877;DHT22;13692;47.480;19.216;2022-11-20T11:05:36;7.60;99.90
25877;DHT22;13692;47.480;19.216;2022-11-20T11:08:13;7.70;99.90
25877;DHT22;13692;47.480;19.216;2022-11-20T11:10:53;7.70;99.90
25877;DHT22;13692;47.480;19.216;2022-11-20T11:13:26;7.80;99.90
25877;DHT22;13692;47.480;19.216;2022-11-20T11:15:54;7.80;99.90
25877;DHT22;13692;47.480;19.216;2022-11-20T11:18:32;7.80;99.90
25877;DHT22;13692;47.480;19.216;2022-11-20T11:21:01;7.90;99.90
25877;DHT22;13692;47.480;19.216;2022-11-20T11:25:57;7.80;99.90
25877;DHT22;13692;47.480;19.216;2022-11-20T11:28:26;7.80;99.90
25877;DHT22;13692;47.480;19.216;2022-11-20T11:30:54;7.90;99.90
25877;DHT22;13692;47.480;19.216;2022-11-20T11:33:30;7.90;99.90
25877;DHT22;13692;47.480;19.216;2022-11-20T11:36:03;7.90;99.90
25877;DHT22;13692;47.480;19.216;2022-11-20T11:38:38;7.90;99.90
25877;DHT22;13692;47.480;19.216;2022-11-20T11:41:12;8.00;99.90
25877;DHT22;13692;47.480;19.216;2022-11-20T11:43:56;8.00;99.90
25877;DHT22;13692;47.480;19.216;2022-11-20T11:46:56;8.00;99.90
25877;DHT22;13692;47.480;19.216;2022-11-20T11:49:24;8.10;99.90
25877;DHT22;13692;47.480;19.216;2022-11-20T11:54:57;8.10;99.90
25877;DHT22;13692;47.480;19.216;2022-11-20T11:58:17;8.20;99.90
25877;DHT22;13692;47.480;19.216;2022-11-20T12:00:35;8.10;99.90
25877;DHT22;13692;47.480;19.216;2022-11-20T12:03:15;8.10;99.90
25877;DHT22;13692;47.480;19.216;2022-11-20T12:06:10;8.10;99.90
25877;DHT22;13692;47.480;19.216;2022-11-20T12:08:49;8.10;99.90
25877;DHT22;13692;47.480;19.216;2022-11-20T12:11:46;8.20;99.90
25877;DHT22;13692;47.480;19.216;2022-11-20T12:14:37;8.20;99.90
25877;DHT22;13692;47.480;19.216;2022-11-20T12:17:11;8.30;99.90
25877;DHT22;13692;47.480;19.216;2022-11-20T12:19:38;8.30;99.90
25877;DHT22;13692;47.480;19.216;2022-11-20T12:22:49;8.30;99.90
25877;DHT22;13692;47.480;19.216;2022-11-20T12:25:35;8.30;99.90
25877;DHT22;13692;47.480;19.216;2022-11-20T12:30:51;8.30;99.90
25877;DHT22;13692;47.480;19.216;2022-11-20T12:39:36;8.30;99.90
25877;DHT22;13692;47.480;19.216;2022-11-20T12:42:18;8.30;99.90
25877;DHT22;13692;47.480;19.216;2022-11-20T12:45:29;8.30;99.90
25877;DHT22;13692;47.480;19.216;2022-11-20T12:48:28;8.20;99.90
25877;DHT22;13692;47.480;19.216;2022-11-20T13:01:52;8.00;99.90
25877;DHT22;13692;47.480;19.216;2022-11-20T13:07:13;8.00;99.90
25877;DHT22;13692;47.480;19.216;2022-11-20T13:09:46;8.00;99.90
25877;DHT22;13692;47.480;19.216;2022-11-20T13:12:24;8.00;99.90
25877;DHT22;13692;47.480;19.216;2022-11-20T13:17:51;8.00;99.90
25877;DHT22;13692;47.480;19.216;2022-11-20T13:20:20;8.00;99.90
25877;DHT22;13692;47.480;19.216;2022-11-20T13:22:49;8.00;99.90
25877;DHT22;13692;47.480;19.216;2022-11-20T13:28:00;8.00;99.90
25877;DHT22;13692;47.480;19.216;2022-11-20T13:30:30;7.90;99.90
25877;DHT22;13692;47.480;19.216;2022-11-20T13:33:23;7.90;99.90
25877;DHT22;13692;47.480;19.216;2022-11-20T13:36:02;7.90;99.90
25877;DHT22;13692;47.480;19.216;2022-11-20T13:38:42;7.90;99.90
25877;DHT22;13692;47.480;19.216;2022-11-20T13:41:09;7.90;99.90
25877;DHT22;13692;47.480;19.216;2022-11-20T13:44:04;7.90;99.90
25877;DHT22;13692;47.480;19.216;2022-11-20T13:46:36;7.90;99.90
25877;DHT22;13692;47.480;19.216;2022-11-20T13:49:08;7.90;99.90
25877;DHT22;13692;47.480;19.216;2022-11-20T13:51:47;7.80;99.90
25877;DHT22;13692;47.480;19.216;2022-11-20T14:02:23;7.60;99.90
25877;DHT22;13692;47.480;19.216;2022-11-20T14:04:54;7.60;99.90
25877;DHT22;13692;47.480;19.216;2022-11-20T14:07:27;7.50;99.90
25877;DHT22;13692;47.480;19.216;2022-11-20T14:09:58;7.50;99.90
25877;DHT22;13692;47.480;19.216;2022-11-20T14:12:30;7.40;99.90
25877;DHT22;13692;47.480;19.216;2022-11-20T14:14:58;7.40;99.90
25877;DHT22;13692;47.480;19.216;2022-11-20T14:20:02;7.20;99.90
25877;DHT22;13692;47.480;19.216;2022-11-20T14:22:31;7.20;99.90
25877;DHT22;13692;47.480;19.216;2022-11-20T14:27:34;7.10;99.90
25877;DHT22;13692;47.480;19.216;2022-11-20T14:30:04;7.00;99.90
25877;DHT22;13692;47.480;19.216;2022-11-20T14:32:31;7.00;99.90
25877;DHT22;13692;47.480;19.216;2022-11-20T14:35:08;7.00;99.90
25877;DHT22;13692;47.480;19.216;2022-11-20T14:37:38;6.90;99.90
25877;DHT22;13692;47.480;19.216;2022-11-20T14:40:23;6.90;99.90
25877;DHT22;13692;47.480;19.216;2022-11-20T14:42:51;6.80;99.90
25877;DHT22;13692;47.480;19.216;2022-11-20T14:45:19;6.70;99.90
25877;DHT22;13692;47.480;19.216;2022-11-20T14:47:47;6.70;99.90
25877;DHT22;13692;47.480;19.216;2022-11-20T14:50:27;6.70;99.90
25877;DHT22;13692;47.480;19.216;2022-11-20T14:52:59;6.70;99.90
25877;DHT22;13692;47.480;19.216;2022-11-20T14:58:02;6.60;99.90
25877;DHT22;13692;47.480;19.216;2022-11-20T15:00:32;6.50;99.90
25877;DHT22;13692;47.480;19.216;2022-11-20T15:03:00;6.50;99.90
25877;DHT22;13692;47.480;19.216;2022-11-20T15:05:48;6.50;99.90
25877;DHT22;13692;47.480;19.216;2022-11-20T15:08:16;6.50;99.90
25877;DHT22;13692;47.480;19.216;2022-11-20T15:10:49;6.40;99.90
25877;DHT22;13692;47.480;19.216;2022-11-20T15:13:32;6.40;99.90
25877;DHT22;13692;47.480;19.216;2022-11-20T15:16:01;6.30;99.90
25877;DHT22;13692;47.480;19.216;2022-11-20T15:18:31;6.30;99.90
25877;DHT22;13692;47.480;19.216;2022-11-20T15:21:02;6.20;99.90
25877;DHT22;13692;47.480;19.216;2022-11-20T15:23:32;6.20;99.90
25877;DHT22;13692;47.480;19.216;2022-11-20T15:26:00;6.20;99.90
25877;DHT22;13692;47.480;19.216;2022-11-20T15:28:44;6.00;99.90
25877;DHT22;13692;47.480;19.216;2022-11-20T15:31:13;6.00;99.90
25877;DHT22;13692;47.480;19.216;2022-11-20T15:33:40;5.90;99.90
25877;DHT22;13692;47.480;19.216;2022-11-20T15:36:08;5.80;99.90
25877;DHT22;13692;47.480;19.216;2022-11-20T15:38:36;5.80;99.90
25877;DHT22;13692;47.480;19.216;2022-11-20T15:41:04;5.70;99.90
25877;DHT22;13692;47.480;19.216;2022-11-20T15:43:32;5.60;99.90
25877;DHT22;13692;47.480;19.216;2022-11-20T15:46:45;5.50;99.90
25877;DHT22;13692;47.480;19.216;2022-11-20T15:48:55;5.40;99.90
25877;DHT22;13692;47.480;19.216;2022-11-20T15:51:31;5.30;99.90
25877;DHT22;13692;47.480;19.216;2022-11-20T15:53:58;5.20;99.90
25877;DHT22;13692;47.480;19.216;2022-11-20T15:56:26;5.10;99.90
25877;DHT22;13692;47.480;19.216;2022-11-20T15:58:53;5.10;99.90
25877;DHT22;13692;47.480;19.216;2022-11-20T16:01:22;5.00;99.90
25877;DHT22;13692;47.480;19.216;2022-11-20T16:03:49;4.90;99.90
25877;DHT22;13692;47.480;19.216;2022-11-20T16:06:19;4.80;99.90
25877;DHT22;13692;47.480;19.216;2022-11-20T16:08:46;4.70;99.90
25877;DHT22;13692;47.480;19.216;2022-11-20T16:11:15;4.70;99.90
25877;DHT22;13692;47.480;19.216;2022-11-20T16:13:43;4.60;99.90
25877;DHT22;13692;47.480;19.216;2022-11-20T16:16:32;4.60;99.90
25877;DHT22;13692;47.480;19.216;2022-11-20T16:19:00;4.50;99.90
25877;DHT22;13692;47.480;19.216;2022-11-20T16:21:27;4.50;99.90
25877;DHT22;13692;47.480;19.216;2022-11-20T16:24:02;4.50;99.90
25877;DHT22;13692;47.480;19.216;2022-11-20T16:26:30;4.40;99.90
25877;DHT22;13692;47.480;19.216;2022-11-20T16:29:02;4.40;99.90
25877;DHT22;13692;47.480;19.216;2022-11-20T16:31:30;4.30;99.90
25877;DHT22;13692;47.480;19.216;2022-11-20T16:34:00;4.30;99.90
25877;DHT22;13692;47.480;19.216;2022-11-20T16:36:31;4.20;99.90
25877;DHT22;13692;47.480;19.216;2022-11-20T16:39:00;4.20;99.90
25877;DHT22;13692;47.480;19.216;2022-11-20T16:41:30;4.20;99.90
25877;DHT22;13692;47.480;19.216;2022-11-20T16:44:00;4.20;99.90
25877;DHT22;13692;47.480;19.216;2022-11-20T16:46:30;4.20;99.90
25877;DHT22;13692;47.480;19.216;2022-11-20T16:49:03;4.20;99.90
25877;DHT22;13692;47.480;19.216;2022-11-20T16:51:34;4.20;99.90
25877;DHT22;13692;47.480;19.216;2022-11-20T16:54:03;4.20;99.90
25877;DHT22;13692;47.480;19.216;2022-11-20T16:56:30;4.10;99.90
25877;DHT22;13692;47.480;19.216;2022-11-20T16:58:59;4.10;99.90
25877;DHT22;13692;47.480;19.216;2022-11-20T17:01:28;4.10;99.90
25877;DHT22;13692;47.480;19.216;2022-11-20T17:03:58;4.10;99.90
25877;DHT22;13692;47.480;19.216;2022-11-20T17:06:29;4.10;99.90
25877;DHT22;13692;47.480;19.216;2022-11-20T17:08:57;4.00;99.90
25877;DHT22;13692;47.480;19.216;2022-11-20T17:11:26;4.00;99.90
25877;DHT22;13692;47.480;19.216;2022-11-20T17:13:55;3.90;99.90
25877;DHT22;13692;47.480;19.216;2022-11-20T17:16:24;3.90;99.90
25877;DHT22;13692;47.480;19.216;2022-11-20T17:18:56;3.80;99.90